Time;durP1;ratioP1;P1;durP2;ratioP2;P2;SDS_P1;SDS_P2;PMS_P1;PMS_P2;Temp;Humidity;BMP_temperature;BMP_pressure;BME280_temperature;BME280_humidity;BME280_pressure;Samples;Min_cycle;Max_cycle;Signal;HPM_P1;HPM_P2
2023/12/24 00:00:00;;;;;;;0.80;0.50;;;;;;;7.38;100.00;153254.41;4986893;28;20445;-83
2023/12/24 00:02:28;;;;;;;1.07;0.50;;;;;;;7.36;100.00;153251.78;4984450;28;20500;-83
2023/12/24 00:04:54;;;;;;;1.00;0.50;;;;;;;7.33;100.00;153242.78;5019118;28;21013;-83
2023/12/24 00:07:21;;;;;;;1.13;0.60;;;;;;;7.32;100.00;153241.47;5004106;28;22428;-84
2023/12/24 00:09:47;;;;;;;1.10;0.70;;;;;;;7.31;100.00;153238.88;5011664;28;20538;-84
2023/12/24 00:12:14;;;;;;;1.17;0.50;;;;;;;7.30;100.00;153235.03;5018527;28;20501;-84
2023/12/24 00:14:41;;;;;;;1.13;0.70;;;;;;;7.28;100.00;153231.13;5002888;28;20955;-83
2023/12/24 00:17:07;;;;;;;1.77;0.70;;;;;;;7.29;100.00;153233.72;5006047;28;20460;-83
2023/12/24 00:19:35;;;;;;;1.13;0.60;;;;;;;7.29;100.00;153233.72;5009330;28;20793;-83
2023/12/24 00:22:02;;;;;;;1.10;0.70;;;;;;;7.30;100.00;153236.34;5010319;28;20456;-83
2023/12/24 00:24:28;;;;;;;1.47;0.50;;;;;;;7.28;100.00;153229.88;5002181;28;20525;-83
2023/12/24 00:26:55;;;;;;;1.03;0.63;;;;;;;7.27;100.00;153228.56;5002014;28;20916;-83
2023/12/24 00:29:21;;;;;;;1.50;0.70;;;;;;;7.29;100.00;153233.72;5007504;28;20852;-84
2023/12/24 00:31:47;;;;;;;0.90;0.60;;;;;;;7.27;100.00;153228.56;5008843;28;20452;-84
2023/12/24 00:34:13;;;;;;;1.10;0.60;;;;;;;7.29;100.00;153232.44;5017847;28;20448;-83
2023/12/24 00:36:41;;;;;;;2.20;0.80;;;;;;;7.31;100.00;153237.59;5010538;28;20207;-83
2023/12/24 00:39:08;;;;;;;1.20;0.60;;;;;;;7.32;100.00;153241.47;5002341;28;20453;-83
2023/12/24 00:41:35;;;;;;;1.53;0.80;;;;;;;7.33;100.00;153244.03;5017692;28;20460;-83
2023/12/24 00:44:01;;;;;;;1.37;0.63;;;;;;;7.33;100.00;153244.03;4999869;28;20488;-83
2023/12/24 00:46:28;;;;;;;2.70;0.70;;;;;;;7.33;100.00;153244.03;4992835;28;20474;-83
2023/12/24 00:48:54;;;;;;;1.00;0.53;;;;;;;7.35;100.00;153249.25;5006955;28;20821;-83
2023/12/24 00:51:22;;;;;;;0.80;0.30;;;;;;;7.32;100.00;153240.19;4990343;28;20451;-83
2023/12/24 00:53:49;;;;;;;1.13;0.47;;;;;;;7.33;100.00;153244.03;5007947;28;20460;-83
2023/12/24 00:56:16;;;;;;;1.00;0.40;;;;;;;7.28;100.00;153231.13;5015809;28;20953;-84
2023/12/24 00:58:42;;;;;;;1.20;0.63;;;;;;;7.29;100.00;153232.44;5009675;28;20455;-84
2023/12/24 01:01:09;;;;;;;0.90;0.40;;;;;;;7.29;100.00;153232.44;4991920;28;20502;-84
2023/12/24 01:03:36;;;;;;;1.53;0.70;;;;;;;7.32;100.00;153241.47;5009264;28;20484;-83
2023/12/24 01:06:02;;;;;;;1.10;0.40;;;;;;;7.31;100.00;153238.88;5005621;28;20464;-83
2023/12/24 01:08:29;;;;;;;0.80;0.40;;;;;;;7.26;100.00;153225.97;5001471;28;20547;-83
2023/12/24 01:10:57;;;;;;;1.40;0.50;;;;;;;7.24;100.00;153220.81;5007462;28;20461;-84
2023/12/24 01:13:23;;;;;;;1.10;0.50;;;;;;;7.27;100.00;153227.28;5005447;28;20488;-84
2023/12/24 01:15:50;;;;;;;1.33;0.60;;;;;;;7.26;100.00;153224.66;5004158;28;20464;-84
2023/12/24 01:18:16;;;;;;;1.00;0.30;;;;;;;7.29;100.00;153233.72;5001189;28;20461;-83
2023/12/24 01:20:43;;;;;;;0.80;0.33;;;;;;;7.30;100.00;153236.34;5022689;28;20460;-83
2023/12/24 01:23:09;;;;;;;0.83;0.37;;;;;;;7.27;100.00;153228.56;5008314;28;20468;-83
2023/12/24 01:25:36;;;;;;;0.90;0.30;;;;;;;7.27;100.00;153228.56;4999448;28;20461;-83
2023/12/24 01:28:05;;;;;;;0.90;0.40;;;;;;;7.27;100.00;153228.56;5000777;28;20456;-84
2023/12/24 01:30:31;;;;;;;0.70;0.30;;;;;;;7.28;100.00;153231.13;5005660;28;21061;-83
2023/12/24 01:32:58;;;;;;;0.90;0.40;;;;;;;7.24;100.00;153220.81;4993663;28;20449;-83
2023/12/24 01:35:24;;;;;;;0.73;0.37;;;;;;;7.26;100.00;153225.97;5006031;28;20568;-83
2023/12/24 01:37:51;;;;;;;0.90;0.40;;;;;;;7.31;100.00;153237.59;5015751;28;20454;-83
2023/12/24 01:40:17;;;;;;;1.00;0.60;;;;;;;7.33;100.00;153244.03;4996072;28;20456;-83
2023/12/24 01:42:45;;;;;;;0.90;0.40;;;;;;;7.35;100.00;153247.94;5001323;28;21002;-83
2023/12/24 01:45:13;;;;;;;1.20;0.60;;;;;;;7.35;100.00;153249.25;5015728;28;20460;-83
2023/12/24 01:47:40;;;;;;;1.63;0.43;;;;;;;7.37;100.00;153253.09;5009604;28;20813;-83
2023/12/24 01:50:08;;;;;;;0.80;0.40;;;;;;;7.40;100.00;153260.84;5006434;28;20472;-83
2023/12/24 01:52:34;;;;;;;0.93;0.53;;;;;;;7.36;100.00;153251.78;4989625;28;20437;-83
2023/12/24 01:55:01;;;;;;;2.53;0.57;;;;;;;7.39;100.00;153257.00;5008227;28;20452;-84
2023/12/24 01:57:30;;;;;;;1.53;0.60;;;;;;;7.38;100.00;153255.69;4989329;28;20441;-84
2023/12/24 01:59:58;;;;;;;2.47;0.57;;;;;;;7.38;100.00;153254.41;5023769;28;20464;-83
2023/12/24 02:02:28;;;;;;;0.97;0.50;;;;;;;7.39;100.00;153258.25;5007714;28;20488;-83
2023/12/24 02:04:55;;;;;;;1.70;0.60;;;;;;;7.36;100.00;153251.78;4999483;28;20464;-83
2023/12/24 02:07:23;;;;;;;1.30;0.80;;;;;;;7.35;100.00;153247.94;4994128;28;20465;-83
2023/12/24 02:09:50;;;;;;;1.30;0.60;;;;;;;7.33;100.00;153244.03;4984958;28;20528;-83
2023/12/24 02:12:16;;;;;;;1.13;0.57;;;;;;;7.38;100.00;153254.41;5005880;28;20510;-83
2023/12/24 02:14:43;;;;;;;1.63;0.87;;;;;;;7.37;100.00;153253.09;4999079;28;20543;-83
2023/12/24 02:17:09;;;;;;;1.67;0.70;;;;;;;7.33;100.00;153244.03;5003991;28;20833;-83
2023/12/24 02:19:38;;;;;;;1.27;0.70;;;;;;;7.37;100.00;153253.09;5022859;28;20813;-84
2023/12/24 02:22:06;;;;;;;1.37;0.80;;;;;;;7.39;100.00;153257.00;5006960;28;20464;-82
2023/12/24 02:24:32;;;;;;;1.07;0.57;;;;;;;7.35;100.00;153247.94;5015985;28;20463;-82
2023/12/24 02:27:06;;;;;;;1.47;0.93;;;;;;;7.38;100.00;153255.69;5011770;28;20547;-83
2023/12/24 02:29:35;;;;;;;0.90;0.50;;;;;;;7.38;100.00;153254.41;5004778;28;20449;-84
2023/12/24 02:32:06;;;;;;;1.10;0.57;;;;;;;7.41;100.00;153263.44;5001087;28;20462;-82
2023/12/24 02:34:34;;;;;;;1.30;0.60;;;;;;;7.44;100.00;153269.91;5008174;28;20831;-83
2023/12/24 02:37:01;;;;;;;1.10;0.60;;;;;;;7.40;100.00;153259.53;5007883;28;21337;-82
2023/12/24 02:39:29;;;;;;;1.37;0.60;;;;;;;7.35;100.00;153249.25;4999099;28;20982;-82
2023/12/24 02:41:55;;;;;;;1.50;0.60;;;;;;;7.31;100.00;153238.88;5009707;28;20461;-83
2023/12/24 02:44:22;;;;;;;1.10;0.50;;;;;;;7.32;100.00;153241.47;5006678;28;20482;-83
2023/12/24 02:46:48;;;;;;;2.33;1.10;;;;;;;7.30;100.00;153235.03;5007580;28;20452;-83
2023/12/24 02:49:15;;;;;;;1.20;0.67;;;;;;;7.34;100.00;153245.34;5003121;28;20445;-83
2023/12/24 02:51:41;;;;;;;1.40;0.87;;;;;;;7.35;100.00;153249.25;5020158;28;20465;-83
2023/12/24 02:54:08;;;;;;;1.33;0.70;;;;;;;7.36;100.00;153251.78;5005384;28;20457;-83
2023/12/24 02:56:37;;;;;;;0.93;0.43;;;;;;;7.38;100.00;153254.41;5008788;28;20455;-82
2023/12/24 02:59:04;;;;;;;1.20;0.60;;;;;;;7.39;100.00;153257.00;5010797;28;20544;-82
2023/12/24 03:01:30;;;;;;;0.90;0.50;;;;;;;7.39;100.00;153257.00;5003795;28;20532;-83
2023/12/24 03:03:57;;;;;;;1.10;0.63;;;;;;;7.36;100.00;153251.78;5021709;28;20487;-83
2023/12/24 03:06:23;;;;;;;1.00;0.60;;;;;;;7.36;100.00;153251.78;4995427;28;20551;-83
2023/12/24 03:08:50;;;;;;;1.27;0.90;;;;;;;7.40;100.00;153259.53;4983829;28;20453;-82
2023/12/24 03:11:16;;;;;;;1.00;0.70;;;;;;;7.42;100.00;153266.00;4990003;28;20474;-83
2023/12/24 03:13:44;;;;;;;1.37;0.83;;;;;;;7.44;100.00;153269.91;4996348;28;20456;-83
2023/12/24 03:16:11;;;;;;;1.20;0.80;;;;;;;7.41;100.00;153262.16;5007997;28;20448;-83
2023/12/24 03:18:37;;;;;;;0.93;0.50;;;;;;;7.43;100.00;153267.31;4990098;28;20564;-83
2023/12/24 03:21:05;;;;;;;1.53;0.70;;;;;;;7.42;100.00;153264.69;4976941;28;20463;-83
2023/12/24 03:23:32;;;;;;;1.30;0.70;;;;;;;7.43;100.00;153267.31;5002415;28;20480;-82
2023/12/24 03:25:59;;;;;;;1.30;0.70;;;;;;;7.43;100.00;153268.59;4996271;28;20560;-82
2023/12/24 03:28:25;;;;;;;1.07;0.63;;;;;;;7.43;100.00;153267.31;4988126;28;20443;-83
2023/12/24 03:30:53;;;;;;;1.00;0.60;;;;;;;7.43;100.00;153267.31;4996808;28;20461;-82
2023/12/24 03:33:19;;;;;;;1.40;0.70;;;;;;;7.44;100.00;153269.91;4992929;28;20464;-83
2023/12/24 03:35:46;;;;;;;1.77;0.73;;;;;;;7.43;100.00;153267.31;4991009;28;20640;-82
2023/12/24 03:38:13;;;;;;;1.10;0.50;;;;;;;7.41;100.00;153263.44;4994278;28;20435;-82
2023/12/24 03:40:40;;;;;;;1.30;0.67;;;;;;;7.42;100.00;153264.69;4997446;28;20467;-83
2023/12/24 03:43:07;;;;;;;1.30;0.80;;;;;;;7.44;100.00;153269.91;5000065;28;20465;-83
2023/12/24 03:45:33;;;;;;;1.27;0.83;;;;;;;7.45;100.00;153272.47;5004912;28;20542;-83
2023/12/24 03:48:04;;;;;;;0.93;0.70;;;;;;;7.45;100.00;153272.47;4984603;28;20813;-83
2023/12/24 03:50:31;;;;;;;1.07;0.80;;;;;;;7.48;100.00;153281.50;5014493;28;20856;-83
2023/12/24 03:52:57;;;;;;;1.20;0.90;;;;;;;7.46;100.00;153276.34;5009742;28;20445;-82
2023/12/24 03:55:24;;;;;;;1.33;0.80;;;;;;;7.47;100.00;153277.63;5000460;28;20511;-82
2023/12/24 03:57:50;;;;;;;1.90;1.00;;;;;;;7.43;100.00;153268.59;5008412;28;21337;-83
2023/12/24 04:00:18;;;;;;;1.20;0.77;;;;;;;7.42;100.00;153264.69;5005969;28;20449;-83
2023/12/24 04:02:44;;;;;;;1.97;1.03;;;;;;;7.43;100.00;153267.31;5018006;28;20461;-82
2023/12/24 04:05:12;;;;;;;1.30;0.80;;;;;;;7.44;100.00;153269.91;5013989;28;20480;-83
2023/12/24 04:07:38;;;;;;;2.30;0.80;;;;;;;7.43;100.00;153268.59;5005736;28;20455;-83
2023/12/24 04:10:06;;;;;;;1.70;0.90;;;;;;;7.43;100.00;153268.59;4982418;28;20471;-83
2023/12/24 04:12:32;;;;;;;1.50;0.97;;;;;;;7.41;100.00;153263.44;4973882;28;20485;-83
2023/12/24 04:14:59;;;;;;;1.10;0.80;;;;;;;7.43;100.00;153267.31;5000229;28;20975;-83
2023/12/24 04:17:25;;;;;;;1.70;0.90;;;;;;;7.42;100.00;153266.00;5008382;28;20460;-83
2023/12/24 04:19:52;;;;;;;1.20;0.80;;;;;;;7.44;100.00;153269.91;4989997;28;20460;-83
2023/12/24 04:22:20;;;;;;;1.63;1.20;;;;;;;7.43;100.00;153268.59;5011499;28;20459;-82
2023/12/24 04:24:46;;;;;;;1.10;0.77;;;;;;;7.43;100.00;153268.59;4999068;28;20884;-83
2023/12/24 04:27:13;;;;;;;1.40;0.87;;;;;;;7.43;100.00;153267.31;5003722;28;20453;-83
2023/12/24 04:29:40;;;;;;;1.30;0.83;;;;;;;7.43;100.00;153268.59;4989890;28;20488;-83
2023/12/24 04:32:06;;;;;;;1.30;0.83;;;;;;;7.43;100.00;153267.31;5015789;28;20531;-82
2023/12/24 04:34:33;;;;;;;1.50;0.83;;;;;;;7.43;100.00;153268.59;4987212;28;21005;-83
2023/12/24 04:36:59;;;;;;;1.53;0.90;;;;;;;7.47;100.00;153277.63;5008669;28;20791;-83
2023/12/24 04:39:27;;;;;;;1.33;0.67;;;;;;;7.46;100.00;153276.34;4991465;28;20459;-84
2023/12/24 04:41:54;;;;;;;1.30;0.80;;;;;;;7.44;100.00;153271.16;5002730;28;20491;-83
2023/12/24 04:44:20;;;;;;;1.13;0.73;;;;;;;7.44;100.00;153269.91;4989631;28;20477;-84
2023/12/24 04:46:48;;;;;;;1.47;0.80;;;;;;;7.43;100.00;153268.59;5008055;28;20460;-84
2023/12/24 04:49:14;;;;;;;1.00;0.60;;;;;;;7.42;100.00;153266.00;5009949;28;20460;-83
2023/12/24 04:51:41;;;;;;;1.33;0.97;;;;;;;7.43;100.00;153268.59;4994967;28;20506;-83
2023/12/24 04:54:07;;;;;;;1.10;0.77;;;;;;;7.45;100.00;153272.47;4996812;28;20453;-84
2023/12/24 04:56:36;;;;;;;3.77;1.10;;;;;;;7.45;100.00;153272.47;4987679;28;20530;-83
2023/12/24 04:59:02;;;;;;;1.20;0.80;;;;;;;7.46;100.00;153275.06;5005097;28;20441;-83
2023/12/24 05:01:30;;;;;;;1.23;0.83;;;;;;;7.46;100.00;153275.06;4976962;28;20975;-84
2023/12/24 05:03:56;;;;;;;1.10;0.80;;;;;;;7.43;100.00;153267.31;4996778;28;20849;-83
2023/12/24 05:06:23;;;;;;;1.20;0.80;;;;;;;7.40;100.00;153259.53;4970833;28;20484;-84
2023/12/24 05:08:49;;;;;;;1.20;1.00;;;;;;;7.42;100.00;153264.69;4974540;28;20532;-83
2023/12/24 05:11:16;;;;;;;1.43;0.90;;;;;;;7.40;100.00;153259.53;4968374;28;20488;-83
2023/12/24 05:13:44;;;;;;;1.20;0.90;;;;;;;7.40;100.00;153259.53;4968447;28;20481;-83
2023/12/24 05:16:10;;;;;;;1.00;0.80;;;;;;;7.40;100.00;153259.53;4973073;28;20467;-83
2023/12/24 05:18:37;;;;;;;0.90;0.53;;;;;;;7.38;100.00;153254.41;4985928;28;20445;-83
2023/12/24 05:21:04;;;;;;;1.70;0.93;;;;;;;7.35;100.00;153247.94;4986747;28;20516;-84
2023/12/24 05:23:31;;;;;;;1.10;0.70;;;;;;;7.34;100.00;153246.63;4984920;28;20531;-83
2023/12/24 05:25:57;;;;;;;1.23;0.63;;;;;;;7.34;100.00;153246.63;4968236;28;20466;-84
2023/12/24 05:28:24;;;;;;;1.47;0.80;;;;;;;7.39;100.00;153257.00;4976334;28;20449;-83
2023/12/24 05:30:52;;;;;;;1.57;0.90;;;;;;;7.36;100.00;153250.50;4985474;28;20457;-84
2023/12/24 05:33:18;;;;;;;1.20;0.60;;;;;;;7.35;100.00;153249.25;4986991;28;20461;-84
2023/12/24 05:35:45;;;;;;;1.13;0.60;;;;;;;7.35;100.00;153247.94;4989265;28;20818;-83
2023/12/24 05:38:11;;;;;;;1.90;0.93;;;;;;;7.32;100.00;153241.47;4981236;28;20465;-83
2023/12/24 05:40:38;;;;;;;1.17;0.60;;;;;;;7.30;100.00;153236.34;4988695;28;20809;-83
2023/12/24 05:43:04;;;;;;;1.40;0.70;;;;;;;7.31;100.00;153237.59;4981021;28;20453;-83
2023/12/24 05:45:33;;;;;;;3.60;0.70;;;;;;;7.27;100.00;153228.56;4975477;28;20495;-84
2023/12/24 05:48:01;;;;;;;1.00;0.60;;;;;;;7.24;100.00;153220.81;4988755;28;20460;-83
2023/12/24 05:50:28;;;;;;;2.60;0.90;;;;;;;7.23;100.00;153218.22;5000307;28;20457;-84
2023/12/24 05:52:54;;;;;;;1.43;0.50;;;;;;;7.23;100.00;153218.22;4970043;28;20464;-83
2023/12/24 05:55:21;;;;;;;1.13;0.83;;;;;;;7.20;100.00;153210.47;4982388;28;20457;-83
2023/12/24 05:57:47;;;;;;;1.60;1.00;;;;;;;7.19;100.00;153207.91;4987986;28;20556;-83
2023/12/24 06:00:15;;;;;;;1.20;0.60;;;;;;;7.20;100.00;153209.22;4983044;28;20453;-83
2023/12/24 06:02:42;;;;;;;2.03;0.70;;;;;;;7.23;100.00;153216.91;4986440;28;20453;-83
2023/12/24 06:05:10;;;;;;;1.77;1.10;;;;;;;7.23;100.00;153218.22;5002515;28;20770;-83
2023/12/24 06:07:37;;;;;;;1.00;0.70;;;;;;;7.25;100.00;153223.38;4997122;28;20461;-83
2023/12/24 06:10:03;;;;;;;1.80;1.10;;;;;;;7.24;100.00;153219.53;4993683;28;20855;-83
2023/12/24 06:12:31;;;;;;;1.30;0.80;;;;;;;7.26;100.00;153225.97;4985840;28;20487;-83
2023/12/24 06:14:58;;;;;;;1.10;0.60;;;;;;;7.27;100.00;153228.56;4994988;28;20469;-84
2023/12/24 06:17:24;;;;;;;1.10;0.60;;;;;;;7.25;100.00;153223.38;4995494;28;20448;-83
2023/12/24 06:19:51;;;;;;;1.40;0.70;;;;;;;7.26;100.00;153224.66;4994645;28;21121;-84
2023/12/24 06:22:19;;;;;;;0.90;0.67;;;;;;;7.24;100.00;153220.81;5002160;28;20456;-83
2023/12/24 06:24:45;;;;;;;1.30;0.60;;;;;;;7.20;100.00;153209.22;4998309;28;20503;-83
2023/12/24 06:27:12;;;;;;;1.30;0.80;;;;;;;7.19;100.00;153207.91;4996655;28;20464;-83
2023/12/24 06:29:38;;;;;;;1.10;0.57;;;;;;;7.21;100.00;153213.06;4988532;28;20994;-83
2023/12/24 06:32:05;;;;;;;1.37;0.70;;;;;;;7.23;100.00;153218.22;4997839;28;20453;-83
2023/12/24 06:34:32;;;;;;;1.10;0.60;;;;;;;7.24;100.00;153219.53;4994233;28;20445;-83
2023/12/24 06:36:58;;;;;;;2.27;1.00;;;;;;;7.25;100.00;153222.13;4995659;28;20457;-83
2023/12/24 06:39:26;;;;;;;0.93;0.40;;;;;;;7.25;100.00;153222.13;4995475;28;20845;-83
2023/12/24 06:41:54;;;;;;;1.20;0.70;;;;;;;7.26;100.00;153225.97;4994331;28;20472;-83
2023/12/24 06:44:21;;;;;;;1.50;0.70;;;;;;;7.26;100.00;153225.97;4998269;28;20962;-83
2023/12/24 06:46:48;;;;;;;0.97;0.53;;;;;;;7.25;100.00;153223.38;4994864;28;20536;-83
2023/12/24 06:49:15;;;;;;;0.90;0.60;;;;;;;7.21;100.00;153213.06;4982468;28;20962;-83
2023/12/24 06:51:41;;;;;;;1.20;0.80;;;;;;;7.21;100.00;153213.06;4998308;28;20457;-83
2023/12/24 06:54:08;;;;;;;1.23;0.70;;;;;;;7.25;100.00;153222.13;4994789;28;21020;-83
2023/12/24 06:56:35;;;;;;;1.00;0.53;;;;;;;7.27;100.00;153227.28;4997907;28;20484;-83
2023/12/24 06:59:02;;;;;;;1.03;0.60;;;;;;;7.28;100.00;153231.13;5001552;28;20444;-83
2023/12/24 07:01:30;;;;;;;1.33;0.60;;;;;;;7.31;100.00;153237.59;4999241;28;20562;-83
2023/12/24 07:03:56;;;;;;;1.20;0.60;;;;;;;7.30;100.00;153236.34;4999201;28;20918;-84
2023/12/24 07:06:23;;;;;;;1.00;0.50;;;;;;;7.31;100.00;153238.88;5003047;28;20467;-83
2023/12/24 07:08:49;;;;;;;1.27;0.90;;;;;;;7.30;100.00;153236.34;5007629;28;20452;-83
2023/12/24 07:11:16;;;;;;;2.20;1.13;;;;;;;7.31;100.00;153237.59;5002199;28;20555;-84
2023/12/24 07:13:44;;;;;;;1.20;0.70;;;;;;;7.35;100.00;153249.25;5011966;28;20452;-84
2023/12/24 07:16:10;;;;;;;1.10;0.63;;;;;;;7.35;100.00;153247.94;5001077;28;20463;-83
2023/12/24 07:18:37;;;;;;;1.37;0.67;;;;;;;7.36;100.00;153251.78;4998762;28;20460;-83
2023/12/24 07:21:04;;;;;;;1.60;0.67;;;;;;;7.38;100.00;153254.41;4988750;28;20493;-84
2023/12/24 07:23:29;;;;;;;1.83;0.73;;;;;;;7.40;100.00;153259.53;4999810;28;20468;-83
2023/12/24 07:25:56;;;;;;;1.00;0.60;;;;;;;7.41;100.00;153262.16;5004980;28;20515;-83
2023/12/24 07:28:22;;;;;;;1.10;0.60;;;;;;;7.40;100.00;153259.53;5001305;28;20215;-83
2023/12/24 07:30:50;;;;;;;1.00;0.67;;;;;;;7.41;100.00;153263.44;4984952;28;20467;-83
2023/12/24 07:33:17;;;;;;;1.10;0.53;;;;;;;7.41;100.00;153263.44;5002969;28;20456;-83
2023/12/24 07:35:43;;;;;;;2.13;0.97;;;;;;;7.43;100.00;153268.59;5002177;28;20539;-76
2023/12/24 07:38:10;;;;;;;1.00;0.70;;;;;;;7.45;100.00;153273.75;4997145;28;20453;-76
2023/12/24 07:40:36;;;;;;;1.20;0.70;;;;;;;7.46;100.00;153275.06;5001337;28;20463;-84
2023/12/24 07:43:03;;;;;;;1.27;0.67;;;;;;;7.46;100.00;153275.06;4989483;28;20448;-76
2023/12/24 07:45:30;;;;;;;1.47;0.63;;;;;;;7.50;100.00;153285.38;4998483;28;20924;-75
2023/12/24 07:47:58;;;;;;;1.13;0.67;;;;;;;7.51;100.00;153287.97;4997028;28;20461;-76
2023/12/24 07:50:24;;;;;;;1.97;0.83;;;;;;;7.51;100.00;153287.97;4995883;28;20459;-75
2023/12/24 07:52:51;;;;;;;1.00;0.63;;;;;;;7.53;100.00;153293.13;4998016;28;20542;-75
2023/12/24 07:55:18;;;;;;;0.90;0.50;;;;;;;7.53;100.00;153293.13;5000366;28;21102;-74
2023/12/24 07:57:44;;;;;;;1.10;0.50;;;;;;;7.59;100.00;153308.63;4965746;28;20458;-75
2023/12/24 08:00:12;;;;;;;0.80;0.40;;;;;;;7.61;100.00;153313.78;4978911;28;20870;-74
2023/12/24 08:02:39;;;;;;;1.07;0.77;;;;;;;7.59;100.00;153309.94;4997917;28;20567;-74
2023/12/24 08:05:09;;;;;;;1.20;0.77;;;;;;;7.64;100.00;153321.56;4973231;28;20485;-76
2023/12/24 08:07:36;;;;;;;0.87;0.40;;;;;;;7.64;100.00;153321.56;4979150;28;20451;-74
2023/12/24 08:10:02;;;;;;;0.90;0.50;;;;;;;7.64;100.00;153321.56;4978654;28;20490;-75
2023/12/24 08:12:29;;;;;;;0.80;0.40;;;;;;;7.66;100.00;153326.72;4976539;28;20460;-74
2023/12/24 08:14:57;;;;;;;1.47;0.90;;;;;;;7.68;100.00;153331.84;4975924;28;20465;-75
2023/12/24 08:17:24;;;;;;;0.87;0.53;;;;;;;7.70;100.00;153337.06;4976579;28;20476;-75
2023/12/24 08:19:51;;;;;;;4.60;2.97;;;;;;;7.72;100.00;153342.22;4981267;28;20461;-75
2023/12/24 08:22:19;;;;;;;5.60;4.07;;;;;;;7.73;100.00;153344.81;4978688;28;20459;-75
2023/12/24 08:24:45;;;;;;;1.50;1.07;;;;;;;7.76;100.00;153352.53;4979310;28;20523;-75
2023/12/24 08:27:12;;;;;;;0.90;0.50;;;;;;;7.77;100.00;153355.13;4980696;28;20445;-75
2023/12/24 08:29:38;;;;;;;0.80;0.40;;;;;;;7.79;100.00;153360.28;4979796;28;20481;-75
2023/12/24 08:32:06;;;;;;;0.97;0.40;;;;;;;7.78;100.00;153357.72;4978631;28;20476;-75
2023/12/24 08:34:32;;;;;;;1.13;0.50;;;;;;;7.79;100.00;153360.28;4966210;28;20456;-75
2023/12/24 08:36:59;;;;;;;0.90;0.30;;;;;;;7.80;100.00;153364.19;4979854;28;21025;-75
2023/12/24 08:39:27;;;;;;;0.70;0.20;;;;;;;7.83;100.00;153370.66;4980687;28;20468;-75
2023/12/24 08:41:54;;;;;;;1.00;0.40;;;;;;;7.86;100.00;153379.66;4980158;28;20861;-76
2023/12/24 08:44:20;;;;;;;0.80;0.50;;;;;;;7.91;100.00;153392.63;4981376;28;20449;-75
2023/12/24 08:46:49;;;;;;;0.90;0.40;;;;;;;7.98;100.00;153409.41;4983490;28;20493;-75
2023/12/24 08:49:16;;;;;;;0.90;0.40;;;;;;;7.98;100.00;153409.41;4977192;28;20797;-75
2023/12/24 08:51:43;;;;;;;0.70;0.30;;;;;;;7.97;100.00;153408.09;4979961;28;20541;-75
2023/12/24 08:54:12;;;;;;;1.00;0.40;;;;;;;7.98;100.00;153410.69;4978535;28;20841;-75
2023/12/24 08:56:40;;;;;;;0.80;0.30;;;;;;;8.00;100.00;153414.53;4981303;28;20458;-75
2023/12/24 08:59:08;;;;;;;0.80;0.40;;;;;;;8.01;100.00;153417.16;4977902;28;20933;-75
2023/12/24 09:01:34;;;;;;;0.70;0.33;;;;;;;8.05;100.00;153426.22;4975238;28;20461;-75
2023/12/24 09:04:02;;;;;;;0.80;0.47;;;;;;;8.06;100.00;153430.06;4977260;28;20845;-75
2023/12/24 09:06:28;;;;;;;0.70;0.30;;;;;;;8.10;100.00;153439.13;4973859;28;21078;-75
2023/12/24 09:08:55;;;;;;;0.90;0.40;;;;;;;8.15;100.00;153453.34;4977947;28;20458;-75
2023/12/24 09:11:22;;;;;;;0.90;0.40;;;;;;;8.15;100.00;153453.34;4962746;28;21726;-75
2023/12/24 09:13:49;;;;;;;2.50;0.50;;;;;;;8.19;100.00;153463.66;4956167;28;20901;-76
2023/12/24 09:16:16;;;;;;;0.90;0.40;;;;;;;8.18;100.00;153461.06;4978113;28;20480;-76
2023/12/24 09:18:43;;;;;;;1.53;0.60;;;;;;;8.22;100.00;153470.13;4976566;28;20458;-77
2023/12/24 09:21:10;;;;;;;1.07;0.50;;;;;;;8.26;100.00;153480.50;4977756;28;21408;-75
2023/12/24 09:23:37;;;;;;;0.93;0.53;;;;;;;8.26;100.00;153481.75;4979674;28;20467;-74
2023/12/24 09:26:03;;;;;;;1.00;0.50;;;;;;;8.26;100.00;153481.75;4980687;28;20624;-75
2023/12/24 09:28:30;;;;;;;1.07;0.53;;;;;;;8.24;100.00;153476.59;4980161;28;20516;-74
2023/12/24 09:30:58;;;;;;;1.10;0.60;;;;;;;8.23;100.00;153474.03;4975994;28;21282;-74
2023/12/24 09:33:24;;;;;;;1.10;0.40;;;;;;;8.24;100.00;153476.59;4977008;28;20460;-74
2023/12/24 09:35:51;;;;;;;2.13;1.00;;;;;;;8.22;100.00;153471.44;4969761;28;20465;-76
2023/12/24 09:38:20;;;;;;;1.07;0.50;;;;;;;8.23;100.00;153474.03;4978307;28;20465;-74
2023/12/24 09:40:47;;;;;;;0.90;0.50;;;;;;;8.23;100.00;153474.03;4985470;28;20803;-74
2023/12/24 09:43:13;;;;;;;0.97;0.60;;;;;;;8.22;100.00;153471.44;4966941;28;20451;-76
2023/12/24 09:45:40;;;;;;;0.90;0.50;;;;;;;8.24;100.00;153476.59;4977990;28;20483;-76
2023/12/24 09:48:08;;;;;;;1.00;0.60;;;;;;;8.20;100.00;153466.28;4979017;28;20453;-74
2023/12/24 09:50:34;;;;;;;1.37;0.50;;;;;;;8.21;100.00;153467.50;4976538;28;20832;-74
2023/12/24 09:53:02;;;;;;;0.93;0.50;;;;;;;8.21;100.00;153468.81;4979761;28;20511;-74
2023/12/24 09:55:29;;;;;;;0.93;0.53;;;;;;;8.22;100.00;153470.13;4975562;28;20453;-75
2023/12/24 09:57:55;;;;;;;1.67;0.50;;;;;;;8.19;100.00;153463.66;4977686;28;20541;-75
2023/12/24 10:00:22;;;;;;;2.83;0.70;;;;;;;8.21;100.00;153467.50;4980849;28;20500;-74
2023/12/24 10:02:49;;;;;;;1.13;0.60;;;;;;;8.24;100.00;153475.28;4979824;28;21365;-75
2023/12/24 10:05:16;;;;;;;1.20;0.70;;;;;;;8.22;100.00;153471.44;4998835;28;20481;-75
2023/12/24 10:07:45;;;;;;;1.00;0.60;;;;;;;8.23;100.00;153474.03;4998393;28;20579;-75
2023/12/24 10:10:13;;;;;;;1.60;0.60;;;;;;;8.24;100.00;153476.59;5013224;28;21014;-75
2023/12/24 10:12:40;;;;;;;1.50;1.23;;;;;;;8.26;100.00;153481.75;4997332;28;20498;-75
2023/12/24 10:15:07;;;;;;;1.47;0.60;;;;;;;8.25;100.00;153479.19;5011409;28;20483;-76
2023/12/24 10:17:35;;;;;;;1.20;0.73;;;;;;;8.27;100.00;153484.41;4996119;28;20464;-76
2023/12/24 10:20:03;;;;;;;1.00;0.53;;;;;;;8.32;100.00;153497.31;5002967;28;20449;-76
2023/12/24 10:22:31;;;;;;;0.90;0.40;;;;;;;8.34;100.00;153502.47;4995775;28;20457;-76
2023/12/24 10:25:02;;;;;;;1.30;0.67;;;;;;;8.34;100.00;153502.47;5012306;28;20805;-76
2023/12/24 10:27:29;;;;;;;1.00;0.60;;;;;;;8.36;100.00;153506.38;5010855;28;21035;-76
2023/12/24 10:30:09;;;;;;;1.07;0.67;;;;;;;8.37;100.00;153510.22;4997785;28;20450;-75
2023/12/24 10:32:35;;;;;;;0.80;0.50;;;;;;;8.36;100.00;153507.69;4999293;28;20824;-74
2023/12/24 10:35:02;;;;;;;0.80;0.40;;;;;;;8.39;100.00;153515.38;5016132;28;20846;-74
2023/12/24 10:37:29;;;;;;;1.47;0.50;;;;;;;8.35;100.00;153505.06;5000504;28;20511;-75
2023/12/24 10:40:06;;;;;;;1.03;0.57;;;;;;;8.37;100.00;153508.94;5001632;28;20554;-75
2023/12/24 10:42:32;;;;;;;0.80;0.50;;;;;;;8.39;100.00;153514.13;5016216;28;20449;-75
2023/12/24 10:44:59;;;;;;;0.97;0.43;;;;;;;8.41;100.00;153520.59;5002733;28;20458;-75
2023/12/24 10:47:25;;;;;;;0.87;0.53;;;;;;;8.41;100.00;153520.59;5015271;28;20472;-75
2023/12/24 10:49:52;;;;;;;1.20;0.63;;;;;;;8.44;100.00;153528.34;5014092;28;20484;-75
2023/12/24 10:52:30;;;;;;;1.07;0.53;;;;;;;8.44;100.00;153527.06;5004911;28;21131;-75
2023/12/24 10:54:59;;;;;;;0.90;0.60;;;;;;;8.43;100.00;153524.47;5019688;28;20563;-75
2023/12/24 10:57:41;;;;;;;0.90;0.50;;;;;;;8.43;100.00;153525.75;5002784;28;20532;-75
2023/12/24 11:00:11;;;;;;;0.90;0.50;;;;;;;8.45;100.00;153529.63;4998742;28;20460;-75
2023/12/24 11:02:38;;;;;;;1.23;0.50;;;;;;;8.47;100.00;153536.06;5017416;28;20449;-75
2023/12/24 11:05:05;;;;;;;0.97;0.47;;;;;;;8.48;100.00;153537.38;5016855;28;20475;-75
2023/12/24 11:07:53;;;;;;;0.80;0.40;;;;;;;8.48;100.00;153537.38;5014491;28;20473;-75
2023/12/24 11:10:41;;;;;;;1.00;0.50;;;;;;;8.52;100.00;153549.00;4997990;28;20463;-75
2023/12/24 11:13:32;;;;;;;0.90;0.40;;;;;;;8.52;100.00;153549.00;5002821;28;20444;-75
2023/12/24 11:15:59;;;;;;;1.03;0.53;;;;;;;8.54;100.00;153554.19;5016758;28;20491;-75
2023/12/24 11:18:40;;;;;;;1.17;0.50;;;;;;;8.61;100.00;153569.69;5000744;28;20892;-75
2023/12/24 11:21:06;;;;;;;1.40;0.60;;;;;;;8.62;100.00;153572.28;5005379;28;21038;-75
2023/12/24 11:23:33;;;;;;;1.07;0.53;;;;;;;8.64;100.00;153577.44;5016510;28;20457;-76